Time;durP1;ratioP1;P1;durP2;ratioP2;P2;SDS_P1;SDS_P2;PMS_P1;PMS_P2;Temp;Humidity;BMP_temperature;BMP_pressure;BME280_temperature;BME280_humidity;BME280_pressure;Samples;Min_cycle;Max_cycle;Signal;HPM_P1;HPM_P2
2023/03/12 00:00:50;;;;;;;4.53;2.57;;;0.00;99.90;;;;;;5021175;28;20193;-82
2023/03/12 00:03:17;;;;;;;5.20;2.77;;;0.00;99.90;;;;;;5010391;28;20254;-82
2023/03/12 00:05:45;;;;;;;4.90;2.27;;;-0.10;99.90;;;;;;5016301;28;20230;-82
2023/03/12 00:08:14;;;;;;;6.57;2.70;;;0.00;99.90;;;;;;5027354;28;20220;-82
2023/03/12 00:10:41;;;;;;;3.23;2.47;;;0.00;99.90;;;;;;5022078;28;20684;-82
2023/03/12 00:13:08;;;;;;;3.27;2.40;;;-0.10;99.90;;;;;;5017812;28;20657;-82
2023/03/12 00:15:37;;;;;;;3.60;2.47;;;-0.10;99.90;;;;;;5021899;28;20722;-82
2023/03/12 00:18:04;;;;;;;6.83;3.03;;;-0.20;99.90;;;;;;5021873;28;20269;-82
2023/03/12 00:20:31;;;;;;;6.53;2.97;;;-0.20;99.90;;;;;;5008578;28;20208;-82
2023/03/12 00:22:58;;;;;;;6.03;3.10;;;-0.40;99.90;;;;;;5029139;28;20232;-82
2023/03/12 00:25:26;;;;;;;5.77;2.97;;;-0.40;99.90;;;;;;5018470;28;20204;-82
2023/03/12 00:27:52;;;;;;;7.10;3.20;;;-0.20;99.90;;;;;;5015962;28;20656;-82
2023/03/12 00:30:19;;;;;;;6.07;2.87;;;-0.30;99.90;;;;;;5003287;28;20236;-82
2023/03/12 00:32:46;;;;;;;5.87;2.40;;;-0.30;99.90;;;;;;5013950;28;20201;-82
2023/03/12 00:35:13;;;;;;;3.67;2.40;;;-0.30;99.90;;;;;;5029028;28;20219;-82
2023/03/12 00:37:40;;;;;;;6.03;2.50;;;-0.40;99.90;;;;;;5027350;28;20211;-82
2023/03/12 00:40:09;;;;;;;5.47;2.60;;;-0.50;99.90;;;;;;5019691;28;20615;-82
2023/03/12 00:42:37;;;;;;;5.83;2.70;;;-0.50;99.90;;;;;;5018937;28;20642;-82
2023/03/12 00:45:05;;;;;;;4.60;2.60;;;-0.50;99.90;;;;;;5009975;28;20219;-81
2023/03/12 00:47:32;;;;;;;5.63;2.40;;;-0.40;99.90;;;;;;5016526;28;20193;-80
2023/03/12 00:49:59;;;;;;;6.37;2.60;;;-0.40;99.90;;;;;;5016653;28;20219;-81
2023/03/12 00:52:26;;;;;;;3.37;2.33;;;-0.40;99.90;;;;;;5016608;28;20213;-80
2023/03/12 00:54:57;;;;;;;3.93;2.70;;;-0.30;99.90;;;;;;5019080;28;20699;-81
2023/03/12 00:57:23;;;;;;;8.77;2.97;;;-0.40;99.90;;;;;;5020824;28;20294;-82
2023/03/12 00:59:51;;;;;;;5.67;2.67;;;-0.20;99.90;;;;;;5016888;28;20255;-81
2023/03/12 01:02:18;;;;;;;6.23;2.73;;;-0.30;99.90;;;;;;5008594;28;20683;-82
2023/03/12 01:04:45;;;;;;;10.07;3.67;;;-0.30;99.90;;;;;;5025781;28;20608;-81
2023/03/12 01:07:12;;;;;;;5.90;2.57;;;-0.30;99.90;;;;;;5023295;28;20205;-82
2023/03/12 01:09:39;;;;;;;8.97;3.13;;;-0.30;99.90;;;;;;5012946;28;20568;-81
2023/03/12 01:12:07;;;;;;;4.20;2.37;;;-0.30;99.90;;;;;;5016007;28;20208;-81
2023/03/12 01:14:34;;;;;;;4.13;2.70;;;-0.30;99.90;;;;;;5001745;28;20243;-81
2023/03/12 01:17:02;;;;;;;4.93;3.13;;;-0.40;99.90;;;;;;4998510;28;20231;-81
2023/03/12 01:19:29;;;;;;;6.47;2.90;;;-0.30;99.90;;;;;;4999538;28;20308;-81
2023/03/12 01:21:55;;;;;;;8.90;2.97;;;-0.30;99.90;;;;;;5007398;28;20212;-81
2023/03/12 01:24:22;;;;;;;6.23;3.07;;;-0.20;99.90;;;;;;4995775;28;20740;-81
2023/03/12 01:26:49;;;;;;;5.77;3.10;;;-0.30;99.90;;;;;;4996119;28;20203;-81
2023/03/12 01:29:16;;;;;;;4.97;2.60;;;-0.30;99.90;;;;;;5012229;28;20241;-81
2023/03/12 01:31:43;;;;;;;4.70;2.73;;;-0.30;99.90;;;;;;5014754;28;20205;-81
2023/03/12 01:34:12;;;;;;;8.43;3.20;;;-0.30;99.90;;;;;;5021896;28;20217;-80
2023/03/12 01:36:38;;;;;;;4.77;2.67;;;-0.20;99.90;;;;;;5016367;28;20208;-81
2023/03/12 01:39:05;;;;;;;5.93;2.70;;;-0.20;99.90;;;;;;4997776;28;20604;-81
2023/03/12 01:41:33;;;;;;;5.83;2.90;;;-0.30;99.90;;;;;;5000760;28;20205;-81
2023/03/12 01:44:02;;;;;;;5.97;3.33;;;-0.30;99.90;;;;;;5014796;28;20565;-81
2023/03/12 01:46:32;;;;;;;6.77;2.70;;;-0.20;99.90;;;;;;5022890;28;20201;-81
2023/03/12 01:49:04;;;;;;;6.00;2.70;;;-0.20;99.90;;;;;;5021979;28;20707;-81
2023/03/12 01:51:36;;;;;;;4.17;2.70;;;-0.20;99.90;;;;;;5028443;28;20255;-81
2023/03/12 01:54:07;;;;;;;5.40;3.00;;;-0.30;99.90;;;;;;5002286;28;20217;-81
2023/03/12 01:56:35;;;;;;;5.13;2.53;;;-0.40;99.90;;;;;;5005754;28;20188;-81
2023/03/12 01:59:07;;;;;;;10.83;3.17;;;-0.50;99.90;;;;;;5004215;28;20240;-81
2023/03/12 02:01:34;;;;;;;6.73;2.83;;;-0.50;99.90;;;;;;5026828;28;20214;-81
2023/03/12 02:04:02;;;;;;;6.30;2.90;;;-0.40;99.90;;;;;;5001697;28;20614;-81
2023/03/12 02:06:37;;;;;;;6.23;3.10;;;-0.40;99.90;;;;;;5023712;28;20208;-81
2023/03/12 02:09:06;;;;;;;5.10;2.67;;;-0.40;99.90;;;;;;5026554;28;20695;-81
2023/03/12 02:11:33;;;;;;;4.87;2.87;;;-0.50;99.90;;;;;;5021068;28;20210;-81
2023/03/12 02:14:00;;;;;;;6.80;2.80;;;-0.50;99.90;;;;;;5023782;28;20212;-82
2023/03/12 02:16:27;;;;;;;5.17;3.03;;;-0.50;99.90;;;;;;5017877;28;20212;-80
2023/03/12 02:18:56;;;;;;;6.20;3.17;;;-0.50;99.90;;;;;;5011798;28;20593;-81
2023/03/12 02:21:25;;;;;;;6.83;3.43;;;-0.60;99.90;;;;;;5027235;28;20204;-82
2023/03/12 02:24:00;;;;;;;3.80;2.57;;;-0.60;99.90;;;;;;5027061;28;20199;-81
2023/03/12 02:26:30;;;;;;;5.63;3.07;;;-0.70;99.90;;;;;;5016650;28;20633;-82
2023/03/12 02:29:00;;;;;;;4.33;2.47;;;-0.70;99.90;;;;;;5009174;28;20791;-82
2023/03/12 02:31:31;;;;;;;7.50;2.97;;;-0.60;99.90;;;;;;5012390;28;20200;-82
2023/03/12 02:33:59;;;;;;;7.23;2.80;;;-0.60;99.90;;;;;;4998883;28;20205;-82
2023/03/12 02:36:26;;;;;;;4.60;2.87;;;-0.80;99.90;;;;;;4999807;28;20205;-82
2023/03/12 02:38:55;;;;;;;7.10;3.77;;;-0.80;99.90;;;;;;5018657;28;20242;-82
2023/03/12 02:41:25;;;;;;;6.90;2.90;;;-0.90;99.90;;;;;;5016331;28;20208;-82
2023/03/12 02:44:00;;;;;;;4.97;3.10;;;-0.90;99.90;;;;;;5017554;28;20239;-82
2023/03/12 02:46:29;;;;;;;4.60;2.80;;;-0.80;99.90;;;;;;5017147;28;20243;-82
2023/03/12 02:48:56;;;;;;;4.63;3.47;;;-0.70;99.90;;;;;;5017845;28;20666;-82
2023/03/12 02:51:23;;;;;;;4.40;2.93;;;-0.80;99.90;;;;;;5016894;28;20211;-82
2023/03/12 02:53:53;;;;;;;4.40;2.90;;;-0.80;99.90;;;;;;5017751;28;20201;-82
2023/03/12 02:56:21;;;;;;;4.93;2.70;;;-0.90;99.90;;;;;;5017308;28;20205;-82
2023/03/12 02:58:47;;;;;;;4.80;2.90;;;-1.00;99.90;;;;;;5017062;28;20231;-82
2023/03/12 03:01:16;;;;;;;4.57;2.73;;;-1.10;99.90;;;;;;5016201;28;20220;-82
2023/03/12 03:03:43;;;;;;;4.77;2.53;;;-1.30;99.90;;;;;;5016512;28;20196;-82
2023/03/12 03:06:10;;;;;;;8.10;3.10;;;-1.20;99.90;;;;;;5016153;28;20200;-82
2023/03/12 03:08:37;;;;;;;5.80;2.80;;;-1.20;99.90;;;;;;5016904;28;20231;-82
2023/03/12 03:11:04;;;;;;;4.63;2.60;;;-1.20;99.90;;;;;;5017806;28;20200;-82
2023/03/12 03:13:30;;;;;;;5.53;2.57;;;-1.30;99.90;;;;;;5017766;28;20212;-82
2023/03/12 03:15:58;;;;;;;4.77;2.50;;;-1.40;99.90;;;;;;5016246;28;20240;-82
2023/03/12 03:18:26;;;;;;;5.17;2.67;;;-1.40;99.90;;;;;;5017159;28;20718;-82
2023/03/12 03:20:57;;;;;;;3.73;2.93;;;-1.40;99.90;;;;;;5018114;28;20232;-82
2023/03/12 03:23:24;;;;;;;5.57;3.07;;;-1.50;99.90;;;;;;5015723;28;20210;-82
2023/03/12 03:25:52;;;;;;;5.33;2.50;;;-1.40;99.90;;;;;;5007114;28;20284;-82
2023/03/12 03:28:19;;;;;;;4.30;2.77;;;-1.50;99.90;;;;;;4996021;28;20233;-82
2023/03/12 03:30:46;;;;;;;5.03;2.40;;;-1.60;99.90;;;;;;5010755;28;20212;-82
2023/03/12 03:33:13;;;;;;;5.40;2.60;;;-1.70;99.90;;;;;;5014881;28;20200;-82
2023/03/12 03:35:41;;;;;;;4.63;2.43;;;-1.80;99.90;;;;;;5016688;28;20212;-82
2023/03/12 03:38:07;;;;;;;4.37;2.67;;;-1.70;99.90;;;;;;5016565;28;20232;-82
2023/03/12 03:40:34;;;;;;;4.97;2.63;;;-1.80;99.90;;;;;;5016608;28;20220;-82
2023/03/12 03:43:01;;;;;;;6.23;3.00;;;-1.70;99.90;;;;;;5017251;28;20210;-82
2023/03/12 03:45:28;;;;;;;6.43;2.70;;;-1.80;99.90;;;;;;5009334;28;20638;-82
2023/03/12 03:47:55;;;;;;;4.57;2.60;;;-1.60;99.90;;;;;;5024779;28;20586;-83
2023/03/12 03:50:21;;;;;;;5.10;2.67;;;-1.70;99.90;;;;;;5036747;28;20227;-82
2023/03/12 03:52:50;;;;;;;4.57;2.53;;;-1.70;99.90;;;;;;5036682;28;20569;-82
2023/03/12 03:55:17;;;;;;;5.17;2.40;;;-1.70;99.90;;;;;;5034826;28;20220;-83
2023/03/12 03:57:43;;;;;;;4.07;2.73;;;-1.60;99.90;;;;;;5034934;28;20242;-83
2023/03/12 04:00:12;;;;;;;4.03;2.40;;;-1.60;99.90;;;;;;5035026;28;20677;-82
2023/03/12 04:02:39;;;;;;;6.63;2.80;;;-1.70;99.90;;;;;;5036043;28;20199;-82
2023/03/12 04:05:06;;;;;;;4.27;2.70;;;-1.70;99.90;;;;;;5032541;28;20491;-82
2023/03/12 04:07:33;;;;;;;6.77;3.10;;;-1.60;99.90;;;;;;5016017;28;20669;-83
2023/03/12 04:10:01;;;;;;;7.43;2.97;;;-1.60;99.90;;;;;;5016631;28;20204;-83
2023/03/12 04:12:28;;;;;;;4.27;3.00;;;-1.70;99.90;;;;;;5016608;28;20210;-82
2023/03/12 04:14:55;;;;;;;3.33;2.53;;;-1.70;99.90;;;;;;5015312;28;20223;-82
2023/03/12 04:17:22;;;;;;;6.40;2.53;;;-1.60;99.90;;;;;;5010395;28;20207;-83
2023/03/12 04:19:49;;;;;;;4.90;2.87;;;-1.60;99.90;;;;;;5016696;28;20221;-83
2023/03/12 04:22:16;;;;;;;5.47;3.60;;;-1.80;99.90;;;;;;4996671;28;20296;-83
2023/03/12 04:24:43;;;;;;;6.67;2.90;;;-1.90;99.90;;;;;;5002148;28;20312;-83
2023/03/12 04:27:11;;;;;;;7.20;2.63;;;-1.90;99.90;;;;;;5016157;28;20287;-83
2023/03/12 04:29:39;;;;;;;5.13;2.93;;;-1.90;99.90;;;;;;5016548;28;20231;-83
2023/03/12 04:32:07;;;;;;;3.17;2.20;;;-1.90;99.90;;;;;;5015904;28;20204;-83
2023/03/12 04:34:34;;;;;;;3.50;2.93;;;-2.10;99.90;;;;;;5016167;28;20222;-83
2023/03/12 04:37:01;;;;;;;5.57;3.07;;;-2.30;99.90;;;;;;5016406;28;20291;-83
2023/03/12 04:39:28;;;;;;;3.87;2.50;;;-2.40;99.90;;;;;;5016949;28;20242;-82
2023/03/12 04:41:55;;;;;;;6.57;3.17;;;-2.30;99.90;;;;;;5015466;28;20207;-83
2023/03/12 04:44:23;;;;;;;5.30;2.63;;;-2.50;99.90;;;;;;5016890;28;20211;-83
2023/03/12 04:46:50;;;;;;;4.67;2.80;;;-2.50;99.90;;;;;;5016992;28;20308;-83
2023/03/12 04:49:17;;;;;;;5.50;3.27;;;-2.40;99.90;;;;;;5015532;28;20224;-83
2023/03/12 04:51:43;;;;;;;5.93;2.87;;;-2.30;99.90;;;;;;5014136;28;20197;-83
2023/03/12 04:54:10;;;;;;;6.20;2.80;;;-2.40;99.90;;;;;;5014788;28;20215;-83
2023/03/12 04:56:37;;;;;;;6.27;2.97;;;-2.40;99.90;;;;;;5024035;28;20227;-83
2023/03/12 04:59:05;;;;;;;2.83;2.57;;;-2.30;99.90;;;;;;5023094;28;20230;-83
2023/03/12 05:01:35;;;;;;;5.27;2.63;;;-2.30;99.90;;;;;;5016375;28;20219;-83
2023/03/12 05:04:02;;;;;;;8.80;3.20;;;-2.30;99.90;;;;;;5017274;28;20276;-83
2023/03/12 05:06:29;;;;;;;4.60;2.87;;;-2.20;99.90;;;;;;5017419;28;20267;-83
2023/03/12 05:08:56;;;;;;;36.83;22.30;;;-2.20;99.90;;;;;;5016820;28;20269;-83
2023/03/12 05:11:23;;;;;;;21.80;10.53;;;-2.10;99.90;;;;;;5016308;28;20200;-82
2023/03/12 05:13:50;;;;;;;5.13;3.23;;;-2.00;99.90;;;;;;5016849;28;20208;-82
2023/03/12 05:16:17;;;;;;;8.53;3.83;;;-1.90;99.90;;;;;;5003302;28;20224;-82
2023/03/12 05:18:46;;;;;;;6.00;3.13;;;-2.00;99.90;;;;;;5010758;28;20217;-82
2023/03/12 05:21:16;;;;;;;3.97;2.80;;;-2.00;99.90;;;;;;5014980;28;20712;-82
2023/03/12 05:23:43;;;;;;;4.33;2.63;;;-2.00;99.90;;;;;;5009619;28;20618;-81
2023/03/12 05:26:17;;;;;;;6.83;2.73;;;-2.00;99.90;;;;;;5013592;28;20193;-82
2023/03/12 05:28:44;;;;;;;8.10;2.97;;;-2.10;99.90;;;;;;5006857;28;20238;-81
2023/03/12 05:31:11;;;;;;;4.83;3.03;;;-2.20;99.90;;;;;;5012737;28;20236;-83
2023/03/12 05:33:38;;;;;;;4.80;2.47;;;-2.20;99.90;;;;;;5014433;28;20210;-83
2023/03/12 05:36:08;;;;;;;4.73;2.77;;;-2.10;99.90;;;;;;5016280;28;20310;-83
2023/03/12 05:38:35;;;;;;;4.67;2.87;;;-2.00;99.90;;;;;;5014808;28;20323;-83
2023/03/12 05:41:02;;;;;;;5.23;2.50;;;-1.70;99.90;;;;;;5018666;28;20212;-83
2023/03/12 05:43:29;;;;;;;6.27;2.90;;;-1.70;99.90;;;;;;5009929;28;20217;-83
2023/03/12 05:46:00;;;;;;;5.27;3.00;;;-1.70;99.90;;;;;;5015422;28;20196;-83
2023/03/12 05:48:27;;;;;;;4.07;2.67;;;-1.80;99.90;;;;;;5009676;28;20220;-83
2023/03/12 05:50:54;;;;;;;6.53;3.20;;;-1.70;99.90;;;;;;5033521;28;20231;-82
2023/03/12 05:53:23;;;;;;;6.07;3.17;;;-1.70;99.90;;;;;;5022880;28;20243;-82
2023/03/12 05:55:50;;;;;;;8.17;3.10;;;-1.70;99.90;;;;;;5022787;28;20216;-82
2023/03/12 05:58:17;;;;;;;6.13;3.20;;;-1.50;99.90;;;;;;5021917;28;20311;-82
2023/03/12 06:00:47;;;;;;;3.40;3.00;;;-1.40;99.90;;;;;;5022749;28;20207;-82
2023/03/12 06:03:14;;;;;;;5.73;3.23;;;-1.30;99.90;;;;;;5018245;28;20196;-83
2023/03/12 06:05:41;;;;;;;5.00;3.43;;;-1.30;99.90;;;;;;5019006;28;20204;-82
2023/03/12 06:08:08;;;;;;;4.90;3.37;;;-1.40;99.90;;;;;;5019446;28;20736;-82
2023/03/12 06:10:38;;;;;;;6.47;3.10;;;-1.30;99.90;;;;;;5018947;28;20204;-82
2023/03/12 06:13:05;;;;;;;4.67;2.93;;;-1.30;99.90;;;;;;5019191;28;20588;-82
2023/03/12 06:15:31;;;;;;;7.37;3.70;;;-1.30;99.90;;;;;;5018930;28;20224;-81
2023/03/12 06:17:58;;;;;;;4.50;3.20;;;-1.10;99.90;;;;;;5018962;28;20232;-81
2023/03/12 06:20:25;;;;;;;5.87;3.10;;;-1.10;99.90;;;;;;5018998;28;20264;-81
2023/03/12 06:22:52;;;;;;;6.77;3.30;;;-0.90;99.90;;;;;;5019324;28;20573;-81
2023/03/12 06:25:19;;;;;;;7.50;3.43;;;-0.90;99.90;;;;;;5018159;28;20204;-82
2023/03/12 06:27:47;;;;;;;6.50;3.33;;;-0.90;99.90;;;;;;5018304;28;20204;-82
2023/03/12 06:30:15;;;;;;;5.63;3.57;;;-0.80;99.90;;;;;;4999766;28;20225;-82
2023/03/12 06:32:42;;;;;;;9.47;3.93;;;-0.70;99.90;;;;;;5011884;28;20219;-82
2023/03/12 06:35:09;;;;;;;6.57;4.10;;;-0.60;99.90;;;;;;5017979;28;20214;-82
2023/03/12 06:37:36;;;;;;;9.83;5.13;;;-0.60;99.90;;;;;;5017910;28;20214;-82
2023/03/12 06:40:08;;;;;;;4.70;3.43;;;-0.40;99.90;;;;;;5018556;28;20200;-82
2023/03/12 06:42:35;;;;;;;9.53;4.00;;;-0.40;99.90;;;;;;5018168;28;20208;-82
2023/03/12 06:45:04;;;;;;;6.60;3.90;;;-0.30;99.90;;;;;;5022567;28;20234;-81
2023/03/12 06:47:31;;;;;;;7.90;4.47;;;-0.20;99.90;;;;;;5025193;28;20373;-82
2023/03/12 06:49:57;;;;;;;7.63;3.40;;;-0.10;99.90;;;;;;5022907;28;20239;-82
2023/03/12 06:52:24;;;;;;;10.80;3.67;;;0.10;99.90;;;;;;5023027;28;20211;-81
2023/03/12 06:54:51;;;;;;;4.90;3.50;;;0.20;99.90;;;;;;5023368;28;20210;-81
2023/03/12 06:57:18;;;;;;;7.23;3.80;;;0.30;99.90;;;;;;5021802;28;20232;-81
2023/03/12 06:59:45;;;;;;;5.63;3.57;;;0.40;99.90;;;;;;5023156;28;20641;-81
2023/03/12 07:02:13;;;;;;;6.50;3.50;;;0.50;99.90;;;;;;5024486;28;20203;-82
2023/03/12 07:04:40;;;;;;;5.33;3.50;;;0.60;99.90;;;;;;5023701;28;20218;-82
2023/03/12 07:07:07;;;;;;;7.97;3.87;;;0.60;99.90;;;;;;5023145;28;20526;-81
2023/03/12 07:09:34;;;;;;;9.37;3.90;;;0.70;99.90;;;;;;5023771;28;20228;-82
2023/03/12 07:12:03;;;;;;;6.13;3.87;;;0.70;99.90;;;;;;5024038;28;20690;-81
2023/03/12 07:14:29;;;;;;;6.03;3.20;;;0.70;99.90;;;;;;5024757;28;20227;-81
2023/03/12 07:16:57;;;;;;;5.90;3.43;;;0.70;99.90;;;;;;5024209;28;20231;-81
2023/03/12 07:19:26;;;;;;;5.57;3.37;;;0.80;99.90;;;;;;5023359;28;20359;-82
2023/03/12 07:21:52;;;;;;;7.43;3.33;;;0.90;99.90;;;;;;5022157;28;20699;-81
2023/03/12 07:24:19;;;;;;;4.80;3.20;;;1.00;99.90;;;;;;5022252;28;20207;-81
2023/03/12 07:26:46;;;;;;;7.43;3.37;;;1.10;99.90;;;;;;5021895;28;20235;-81
2023/03/12 07:29:13;;;;;;;5.70;3.20;;;1.10;99.90;;;;;;5021717;28;20240;-82
2023/03/12 07:31:40;;;;;;;9.03;3.57;;;1.20;99.90;;;;;;5023069;28;20208;-82
2023/03/12 07:34:06;;;;;;;6.50;2.90;;;1.40;99.90;;;;;;5026799;28;20195;-80
2023/03/12 07:36:35;;;;;;;6.70;3.30;;;1.50;99.90;;;;;;5027919;28;20296;-81
2023/03/12 07:39:03;;;;;;;6.77;3.53;;;1.70;99.90;;;;;;5027266;28;20223;-81
2023/03/12 07:41:30;;;;;;;7.40;3.17;;;1.90;99.90;;;;;;5014952;28;20208;-82
2023/03/12 07:43:57;;;;;;;4.30;2.60;;;2.40;99.90;;;;;;5021627;28;20240;-81
2023/03/12 07:46:23;;;;;;;4.23;2.57;;;2.60;99.90;;;;;;5015771;28;20208;-81
2023/03/12 07:48:50;;;;;;;5.90;1.97;;;3.10;99.90;;;;;;5020047;28;20311;-84
2023/03/12 07:51:17;;;;;;;4.47;2.60;;;2.90;99.90;;;;;;5021406;28;20295;-82
2023/03/12 07:53:45;;;;;;;13.03;5.33;;;2.60;99.90;;;;;;5021131;28;20657;-83
2023/03/12 07:56:12;;;;;;;19.57;7.77;;;2.80;99.90;;;;;;4999280;28;20236;-81
2023/03/12 07:58:39;;;;;;;3.50;2.57;;;2.70;99.90;;;;;;5017329;28;20228;-82
2023/03/12 08:01:06;;;;;;;5.87;2.20;;;2.90;99.90;;;;;;5023167;28;20207;-81
2023/03/12 08:03:33;;;;;;;6.53;2.30;;;3.00;99.90;;;;;;5019709;28;20608;-83
2023/03/12 08:06:02;;;;;;;3.77;2.10;;;3.00;99.90;;;;;;5019796;28;20204;-83
2023/03/12 08:08:29;;;;;;;5.43;2.13;;;3.10;99.90;;;;;;5018693;28;20228;-82
2023/03/12 08:10:58;;;;;;;6.23;2.30;;;3.20;99.90;;;;;;5026554;28;20217;-84
2023/03/12 08:13:25;;;;;;;4.60;2.20;;;3.20;99.90;;;;;;5023441;28;20203;-82
2023/03/12 08:15:53;;;;;;;5.40;2.07;;;3.20;99.90;;;;;;5021786;28;20673;-81
2023/03/12 08:18:20;;;;;;;4.90;2.07;;;3.30;99.90;;;;;;5021513;28;20234;-82
2023/03/12 08:20:50;;;;;;;4.63;2.10;;;3.30;99.90;;;;;;5017738;28;20216;-82
2023/03/12 08:23:18;;;;;;;4.03;2.23;;;3.30;99.90;;;;;;5017111;28;20193;-80
2023/03/12 08:25:45;;;;;;;5.37;1.83;;;3.30;99.90;;;;;;5016466;28;20215;-82
2023/03/12 08:28:13;;;;;;;5.93;1.87;;;3.40;99.90;;;;;;5018828;28;20228;-82
2023/03/12 08:30:44;;;;;;;3.83;2.10;;;3.40;99.90;;;;;;5012226;28;20212;-82
2023/03/12 08:33:11;;;;;;;4.97;1.93;;;3.50;99.90;;;;;;5015783;28;20200;-82
2023/03/12 08:35:38;;;;;;;4.70;2.23;;;3.60;99.90;;;;;;5006767;28;20661;-82
2023/03/12 08:38:05;;;;;;;5.80;2.13;;;3.60;99.90;;;;;;5020135;28;20707;-81
2023/03/12 08:40:32;;;;;;;5.30;2.40;;;3.60;99.90;;;;;;5005275;28;20657;-81
2023/03/12 08:42:58;;;;;;;5.60;2.37;;;3.50;99.90;;;;;;5010388;28;20204;-82
2023/03/12 08:45:27;;;;;;;5.93;2.17;;;3.50;99.90;;;;;;5011271;28;20678;-81
2023/03/12 08:47:54;;;;;;;4.77;2.43;;;3.50;99.90;;;;;;5027809;22;20232;-91
2023/03/12 08:50:21;;;;;;;4.73;2.50;;;3.60;99.90;;;;;;5012803;28;20206;-92
2023/03/12 08:52:48;;;;;;;3.90;2.60;;;3.60;99.90;;;;;;5012223;28;20208;-91
2023/03/12 08:55:15;;;;;;;4.37;2.43;;;3.60;99.90;;;;;;5026894;28;20199;-92
2023/03/12 08:57:42;;;;;;;6.03;2.23;;;3.70;99.90;;;;;;5032238;28;20298;-92
2023/03/12 09:00:14;;;;;;;4.30;2.07;;;3.70;99.90;;;;;;5030789;28;20664;-90
2023/03/12 09:02:44;;;;;;;4.87;1.90;;;3.80;99.90;;;;;;5032548;28;20571;-93
2023/03/12 09:05:12;;;;;;;4.30;2.30;;;3.90;99.90;;;;;;5017634;28;20756;-92
2023/03/12 09:07:39;;;;;;;6.10;2.43;;;3.90;99.90;;;;;;5012405;28;20797;-91
2023/03/12 09:10:07;;;;;;;3.37;1.87;;;3.90;99.90;;;;;;5025651;28;20237;-90
2023/03/12 09:12:34;;;;;;;3.70;2.10;;;3.90;99.90;;;;;;5032456;28;20211;-88
2023/03/12 09:15:01;;;;;;;5.70;2.47;;;4.00;99.90;;;;;;5020021;28;20206;-90
2023/03/12 09:17:29;;;;;;;4.50;2.00;;;4.00;99.90;;;;;;5012491;28;20239;-90
2023/03/12 09:19:58;;;;;;;6.53;2.10;;;3.90;99.90;;;;;;5023296;28;20257;-91
2023/03/12 09:22:25;;;;;;;5.00;1.90;;;4.00;99.90;;;;;;5032483;28;20210;-92
2023/03/12 09:24:52;;;;;;;7.20;2.10;;;4.00;99.90;;;;;;5023270;28;20200;-89
2023/03/12 09:27:19;;;;;;;7.70;2.07;;;4.10;99.90;;;;;;5013070;28;20744;-89
2023/03/12 09:29:48;;;;;;;4.50;2.10;;;4.20;99.90;;;;;;5020265;28;20200;-90
2023/03/12 09:32:15;;;;;;;6.53;2.50;;;4.20;99.90;;;;;;5033000;28;20207;-89
2023/03/12 09:34:42;;;;;;;4.57;2.20;;;4.30;99.90;;;;;;5026157;28;20287;-89
2023/03/12 09:37:10;;;;;;;4.87;2.80;;;4.40;99.90;;;;;;5016586;28;20228;-88
2023/03/12 09:39:39;;;;;;;6.33;2.30;;;4.40;99.90;;;;;;5022360;28;20200;-89
2023/03/12 09:42:13;;;;;;;3.73;2.20;;;4.40;99.90;;;;;;5027260;28;20199;-91
2023/03/12 09:44:45;;;;;;;6.13;2.20;;;4.50;99.90;;;;;;5027307;28;20684;-92
2023/03/12 09:47:25;;;;;;;5.37;2.23;;;4.50;99.90;;;;;;5027612;28;20210;-89
2023/03/12 09:49:58;;;;;;;6.13;2.50;;;4.60;99.90;;;;;;5024033;28;20203;-90
2023/03/12 09:52:31;;;;;;;6.10;3.17;;;4.70;99.90;;;;;;5019121;28;20239;-88
2023/03/12 09:55:03;;;;;;;5.13;2.60;;;4.70;99.90;;;;;;5026451;28;20195;-90
2023/03/12 09:57:43;;;;;;;4.70;2.30;;;4.80;99.90;;;;;;5027314;28;20230;-90
2023/03/12 10:00:14;;;;;;;5.23;2.13;;;5.00;99.90;;;;;;5027165;28;20208;-91
2023/03/12 10:03:10;;;;;;;4.97;2.20;;;5.00;99.90;;;;;;5037867;28;20235;-90
2023/03/12 10:05:45;;;;;;;2.67;2.00;;;5.00;99.90;;;;;;5032492;28;20204;-91
2023/03/12 10:08:26;;;;;;;9.47;2.10;;;5.00;99.90;;;;;;5020164;28;20223;-91
2023/03/12 10:10:58;;;;;;;4.37;1.93;;;4.80;99.90;;;;;;5045806;28;20210;-90
2023/03/12 10:13:47;;;;;;;4.53;1.97;;;4.80;99.90;;;;;;5031367;28;20196;-91
2023/03/12 10:16:34;;;;;;;3.20;2.30;;;5.10;99.90;;;;;;5024200;28;20208;-91
2023/03/12 10:19:19;;;;;;;3.50;2.33;;;4.90;99.90;;;;;;5032262;28;20219;-90
2023/03/12 10:21:54;;;;;;;3.53;2.43;;;4.90;99.90;;;;;;5030274;28;20210;-90
2023/03/12 10:24:34;;;;;;;4.40;2.10;;;5.20;99.90;;;;;;5029383;28;20204;-88
2023/03/12 10:27:02;;;;;;;5.57;2.20;;;5.10;99.90;;;;;;5031423;28;20207;-89
2023/03/12 10:29:32;;;;;;;5.73;2.10;;;5.10;99.90;;;;;;5035858;28;20228;-90
2023/03/12 10:32:04;;;;;;;3.77;1.90;;;5.10;99.90;;;;;;5027704;28;20215;-89
2023/03/12 10:34:36;;;;;;;10.87;2.70;;;5.10;99.90;;;;;;5037927;28;20272;-89
2023/03/12 10:37:12;;;;;;;5.67;2.30;;;5.00;99.90;;;;;;5051085;22;20232;-85
2023/03/12 10:39:40;;;;;;;5.73;2.07;;;4.80;99.90;;;;;;5030495;28;20656;-86
2023/03/12 10:42:15;;;;;;;5.73;2.30;;;4.80;99.90;;;;;;5042926;28;20219;-86
2023/03/12 10:44:42;;;;;;;5.43;2.30;;;4.70;99.90;;;;;;5040366;28;20199;-87
2023/03/12 10:47:25;;;;;;;2.80;2.23;;;4.60;99.90;;;;;;5029915;28;20232;-87
2023/03/12 10:49:52;;;;;;;2.97;2.20;;;4.40;99.90;;;;;;5034512;28;20210;-87
2023/03/12 10:52:21;;;;;;;4.50;2.43;;;4.40;99.90;;;;;;5030631;28;20200;-87
2023/03/12 10:54:51;;;;;;;4.43;2.70;;;4.30;99.90;;;;;;5037061;28;20217;-86
2023/03/12 10:57:19;;;;;;;3.00;2.33;;;4.40;99.90;;;;;;5030130;28;20287;-87
2023/03/12 10:59:49;;;;;;;9.87;2.10;;;4.20;99.90;;;;;;5030788;28;20213;-88
2023/03/12 11:02:34;;;;;;;3.93;2.53;;;4.20;99.90;;;;;;5028640;28;20290;-86
2023/03/12 11:05:02;;;;;;;6.00;2.80;;;4.00;99.90;;;;;;5019688;28;20203;-87
2023/03/12 11:07:32;;;;;;;9.47;5.47;;;3.90;99.90;;;;;;5027097;28;20278;-87
2023/03/12 11:10:17;;;;;;;11.03;3.00;;;4.00;99.90;;;;;;5012484;28;20208;-87
2023/03/12 11:12:57;;;;;;;11.47;3.20;;;3.80;99.90;;;;;;5017731;28;20216;-87
2023/03/12 11:15:27;;;;;;;5.97;2.77;;;4.20;99.90;;;;;;5022504;28;20207;-87
2023/03/12 11:18:17;;;;;;;14.97;6.20;;;4.00;99.90;;;;;;5012403;28;20231;-86
2023/03/12 11:20:44;;;;;;;5.23;3.13;;;4.10;99.90;;;;;;5022056;28;20205;-88
2023/03/12 11:23:15;;;;;;;4.33;2.40;;;4.00;99.90;;;;;;5019399;28;20578;-86
2023/03/12 11:25:43;;;;;;;7.77;2.80;;;4.10;99.90;;;;;;5026733;28;20205;-87
2023/03/12 11:28:18;;;;;;;6.40;2.83;;;4.10;99.90;;;;;;5029886;28;20216;-87
2023/03/12 11:30:45;;;;;;;5.13;2.70;;;4.10;99.90;;;;;;5025430;28;20308;-88
2023/03/12 11:33:12;;;;;;;4.80;2.93;;;4.10;99.90;;;;;;5016820;28;20208;-87
2023/03/12 11:35:49;;;;;;;4.70;3.17;;;4.10;99.90;;;;;;5012239;28;20596;-87
2023/03/12 11:38:18;;;;;;;8.50;3.20;;;4.10;99.90;;;;;;5010909;28;20220;-87
2023/03/12 11:41:01;;;;;;;9.30;3.30;;;3.90;99.90;;;;;;5017511;28;20201;-87
2023/03/12 11:43:51;;;;;;;3.97;2.70;;;4.10;99.90;;;;;;5013581;28;20227;-86
2023/03/12 11:46:26;;;;;;;6.30;3.57;;;4.30;99.90;;;;;;5017744;28;20401;-85
2023/03/12 11:49:05;;;;;;;6.90;3.00;;;4.30;99.90;;;;;;5016280;28;20204;-85
2023/03/12 11:51:41;;;;;;;8.40;3.47;;;4.20;99.90;;;;;;5013339;28;20208;-85
2023/03/12 11:54:30;;;;;;;6.10;2.97;;;4.30;99.90;;;;;;5012907;28;20731;-85
2023/03/12 11:57:02;;;;;;;5.17;3.27;;;4.20;99.90;;;;;;5017167;28;20223;-86
2023/03/12 11:59:47;;;;;;;6.50;2.93;;;4.30;99.90;;;;;;5008880;28;20598;-86
2023/03/12 12:02:30;;;;;;;9.27;3.30;;;4.30;99.90;;;;;;5015445;28;20199;-85
2023/03/12 12:05:20;;;;;;;5.37;2.90;;;4.20;99.90;;;;;;5023631;28;20209;-87
2023/03/12 12:07:59;;;;;;;7.00;3.40;;;4.10;99.90;;;;;;5015272;28;20303;-87
2023/03/12 12:10:32;;;;;;;5.93;4.00;;;4.30;99.90;;;;;;5019229;28;20203;-87
2023/03/12 12:13:10;;;;;;;4.73;2.53;;;4.40;99.90;;;;;;5017853;28;20208;-87
2023/03/12 12:15:45;;;;;;;5.23;3.40;;;4.30;99.90;;;;;;5020290;28;20199;-87
2023/03/12 12:18:29;;;;;;;6.27;3.63;;;4.20;99.90;;;;;;5019817;28;20230;-87
2023/03/12 12:21:02;;;;;;;5.40;3.40;;;4.10;99.90;;;;;;5015906;28;20219;-86
2023/03/12 12:23:40;;;;;;;5.93;3.93;;;4.20;99.90;;;;;;5011840;28;20208;-88
2023/03/12 12:26:10;;;;;;;6.20;3.40;;;4.00;99.90;;;;;;5011893;28;20239;-87
2023/03/12 12:29:00;;;;;;;7.70;3.80;;;4.00;99.90;;;;;;5017207;28;20229;-88
2023/03/12 12:31:31;;;;;;;5.07;3.40;;;4.10;99.90;;;;;;5009884;28;20204;-85
2023/03/12 12:34:23;;;;;;;3.67;3.17;;;4.00;99.90;;;;;;5017653;28;20204;-85
2023/03/12 12:36:54;;;;;;;5.53;3.30;;;4.10;99.90;;;;;;5016321;28;20236;-87
2023/03/12 12:39:29;;;;;;;5.53;3.37;;;4.10;99.90;;;;;;5010504;28;20279;-88
2023/03/12 12:42:02;;;;;;;9.00;3.83;;;4.20;99.90;;;;;;5023835;28;20204;-85
2023/03/12 12:44:35;;;;;;;4.57;3.27;;;4.20;99.90;;;;;;5004403;28;20212;-88
2023/03/12 12:47:05;;;;;;;4.97;3.37;;;4.30;99.90;;;;;;5008796;28;20220;-85
2023/03/12 12:49:40;;;;;;;6.90;3.33;;;4.10;99.90;;;;;;5018852;28;20211;-85
2023/03/12 12:52:11;;;;;;;4.83;3.50;;;4.20;99.90;;;;;;5008395;28;20207;-86
2023/03/12 12:54:53;;;;;;;11.20;4.50;;;4.10;99.90;;;;;;5010126;28;20220;-88
2023/03/12 12:57:27;;;;;;;8.63;5.10;;;4.10;99.90;;;;;;5012571;28;20227;-86
2023/03/12 13:00:09;;;;;;;10.30;5.37;;;4.10;99.90;;;;;;5018885;28;20321;-87
2023/03/12 13:02:40;;;;;;;6.60;4.50;;;4.20;99.90;;;;;;5012640;28;20218;-87